Time;durP1;ratioP1;P1;durP2;ratioP2;P2;SDS_P1;SDS_P2;PMS_P1;PMS_P2;Temp;Humidity;BMP_temperature;BMP_pressure;BME280_temperature;BME280_humidity;BME280_pressure;Samples;Min_cycle;Max_cycle;Signal;HPM_P1;HPM_P2
2023/08/01 00:00:14;;;;;;;0.97;0.30;;;19.40;99.90;;;;;;5017394;28;20471;-71
2023/08/01 00:02:43;;;;;;;1.03;0.33;;;19.40;99.90;;;;;;5017129;28;20451;-70
2023/08/01 00:05:11;;;;;;;2.20;0.40;;;19.40;99.90;;;;;;5029606;28;20447;-69
2023/08/01 00:07:38;;;;;;;1.70;0.40;;;19.40;99.90;;;;;;5022082;28;20442;-69
2023/08/01 00:10:05;;;;;;;1.27;0.40;;;19.50;99.90;;;;;;5020182;28;20566;-70
2023/08/01 00:12:32;;;;;;;1.47;0.30;;;19.50;99.90;;;;;;5018405;28;20497;-70
2023/08/01 00:14:59;;;;;;;2.10;0.60;;;19.50;99.90;;;;;;5015862;28;20454;-70
2023/08/01 00:17:25;;;;;;;0.40;0.23;;;19.40;99.90;;;;;;5016863;28;20475;-70
2023/08/01 00:19:52;;;;;;;0.77;0.43;;;19.40;99.90;;;;;;5017363;28;20467;-70
2023/08/01 00:22:20;;;;;;;3.10;0.50;;;19.40;99.90;;;;;;5016946;28;20451;-70
2023/08/01 00:24:47;;;;;;;2.63;0.30;;;19.40;99.90;;;;;;5017057;28;20447;-70
2023/08/01 00:27:14;;;;;;;1.33;0.50;;;19.40;99.90;;;;;;5016686;28;20937;-70
2023/08/01 00:29:41;;;;;;;2.20;0.40;;;19.40;99.90;;;;;;5016768;28;20443;-69
2023/08/01 00:32:08;;;;;;;0.50;0.30;;;19.40;99.90;;;;;;5016875;28;20447;-69
2023/08/01 00:34:35;;;;;;;0.40;0.20;;;19.30;99.90;;;;;;5016840;28;20447;-69
2023/08/01 00:37:01;;;;;;;2.23;0.50;;;19.30;99.90;;;;;;5016700;28;20514;-70
2023/08/01 00:39:30;;;;;;;0.53;0.30;;;19.20;99.90;;;;;;5016894;28;20452;-70
2023/08/01 00:41:56;;;;;;;0.53;0.30;;;19.10;99.90;;;;;;5016681;28;20447;-70
2023/08/01 00:44:24;;;;;;;1.13;0.50;;;19.20;99.90;;;;;;5016668;28;20479;-70
2023/08/01 00:46:50;;;;;;;0.93;0.40;;;19.20;99.90;;;;;;5016743;28;20476;-70
2023/08/01 00:49:18;;;;;;;1.00;0.30;;;19.10;99.90;;;;;;5016536;28;20442;-70
2023/08/01 00:51:44;;;;;;;0.40;0.30;;;19.20;99.90;;;;;;5016436;28;20463;-69
2023/08/01 00:54:11;;;;;;;1.70;0.40;;;19.10;99.90;;;;;;5015966;28;20450;-70
2023/08/01 00:56:39;;;;;;;1.37;0.40;;;19.10;99.90;;;;;;5016478;28;20446;-69
2023/08/01 00:59:06;;;;;;;1.17;0.50;;;19.10;99.90;;;;;;5015294;28;20494;-70
2023/08/01 01:01:33;;;;;;;1.10;0.30;;;19.10;99.90;;;;;;5014933;28;20576;-70
2023/08/01 01:04:00;;;;;;;0.40;0.30;;;19.10;99.90;;;;;;5016166;28;20797;-70
2023/08/01 01:06:33;;;;;;;1.07;0.40;;;19.10;99.90;;;;;;5016140;28;20497;-70
2023/08/01 01:08:59;;;;;;;0.70;0.40;;;19.00;99.90;;;;;;5016126;28;20428;-70
2023/08/01 01:11:26;;;;;;;0.80;0.30;;;19.10;99.90;;;;;;5014684;28;20997;-70
2023/08/01 01:13:54;;;;;;;0.70;0.40;;;19.10;99.90;;;;;;5016015;28;20447;-70
2023/08/01 01:16:21;;;;;;;0.80;0.30;;;19.00;99.90;;;;;;5015984;28;20451;-70
2023/08/01 01:18:47;;;;;;;1.33;0.60;;;19.10;99.90;;;;;;5015912;28;20487;-70
2023/08/01 01:24:37;;;;;;;1.00;0.53;;;19.00;99.90;;;;;;5015635;28;20403;-70
2023/08/01 01:27:06;;;;;;;1.40;0.60;;;18.90;99.90;;;;;;5015512;28;20461;-69
2023/08/01 01:29:34;;;;;;;1.70;0.60;;;18.90;99.90;;;;;;5014230;28;20456;-70
2023/08/01 01:32:02;;;;;;;1.00;0.60;;;18.90;99.90;;;;;;5014604;28;20451;-70
2023/08/01 01:34:29;;;;;;;0.80;0.77;;;18.90;99.90;;;;;;5015640;28;20444;-70
2023/08/01 01:36:57;;;;;;;1.40;0.90;;;18.90;99.90;;;;;;5015669;28;20442;-70
2023/08/01 01:39:24;;;;;;;4.00;0.70;;;18.90;99.90;;;;;;5015191;28;21015;-70
2023/08/01 01:41:51;;;;;;;1.23;0.73;;;18.80;99.90;;;;;;5014918;28;20471;-70
2023/08/01 01:44:17;;;;;;;1.17;0.53;;;18.80;99.90;;;;;;5015372;28;20447;-70
2023/08/01 01:46:44;;;;;;;1.27;0.90;;;18.80;99.90;;;;;;5016049;28;20451;-69
2023/08/01 01:49:11;;;;;;;0.70;0.70;;;18.70;99.90;;;;;;5015690;28;20455;-69
2023/08/01 01:51:38;;;;;;;3.30;0.90;;;18.70;99.90;;;;;;5015674;28;20463;-69
2023/08/01 01:54:06;;;;;;;4.63;0.80;;;18.70;99.90;;;;;;5016688;28;20454;-69
2023/08/01 01:56:35;;;;;;;0.70;0.70;;;18.70;99.90;;;;;;5015212;28;20451;-70
2023/08/01 01:59:02;;;;;;;2.60;0.90;;;18.70;99.90;;;;;;5015089;28;20487;-70
2023/08/01 02:01:29;;;;;;;2.07;0.90;;;18.70;99.90;;;;;;5014714;28;20995;-70
2023/08/01 02:03:55;;;;;;;1.77;0.90;;;18.70;99.90;;;;;;5015085;28;20497;-70
2023/08/01 02:06:22;;;;;;;1.93;1.17;;;18.60;99.90;;;;;;5015103;28;20443;-70
2023/08/01 02:08:49;;;;;;;0.90;0.90;;;18.60;99.90;;;;;;5014981;28;20440;-70
2023/08/01 02:11:17;;;;;;;1.33;1.10;;;18.60;99.90;;;;;;5023622;28;20490;-70
2023/08/01 02:13:44;;;;;;;1.87;1.07;;;18.60;99.90;;;;;;5023615;28;20451;-70
2023/08/01 02:16:11;;;;;;;1.10;1.00;;;18.50;99.90;;;;;;5019502;28;20960;-70
2023/08/01 02:18:37;;;;;;;1.03;0.93;;;18.50;99.90;;;;;;5017240;28;20479;-70
2023/08/01 02:21:04;;;;;;;1.33;1.23;;;18.50;99.90;;;;;;5016037;28;20542;-70
2023/08/01 02:23:32;;;;;;;1.43;1.30;;;18.50;99.90;;;;;;5014851;28;20452;-70
2023/08/01 02:25:59;;;;;;;1.30;1.20;;;18.50;99.90;;;;;;5013759;28;20498;-70
2023/08/01 02:28:27;;;;;;;1.70;1.17;;;18.50;99.90;;;;;;5015223;28;20478;-70
2023/08/01 02:30:54;;;;;;;1.80;1.70;;;18.50;99.90;;;;;;5014798;28;20467;-70
2023/08/01 02:33:20;;;;;;;3.83;1.50;;;18.50;99.90;;;;;;5014403;28;20451;-70
2023/08/01 02:35:47;;;;;;;2.23;2.03;;;18.40;99.90;;;;;;5013243;28;20483;-70
2023/08/01 02:38:14;;;;;;;2.10;1.80;;;18.40;99.90;;;;;;5014609;28;20482;-70
2023/08/01 02:40:41;;;;;;;3.30;2.70;;;18.40;99.90;;;;;;5015010;28;20467;-70
2023/08/01 02:43:07;;;;;;;5.47;4.40;;;18.40;99.90;;;;;;5014639;28;20440;-70
2023/08/01 02:45:36;;;;;;;4.53;3.50;;;18.30;99.90;;;;;;5021329;28;20447;-69
2023/08/01 02:48:02;;;;;;;4.20;3.90;;;18.30;99.90;;;;;;5021274;28;20444;-70
2023/08/01 02:50:29;;;;;;;3.40;3.10;;;18.20;99.90;;;;;;5019947;28;20466;-70
2023/08/01 02:52:56;;;;;;;5.90;3.60;;;18.10;99.90;;;;;;5018530;28;20797;-70
2023/08/01 02:55:22;;;;;;;4.77;4.03;;;18.10;99.90;;;;;;5018695;28;20454;-69
2023/08/01 02:57:49;;;;;;;9.20;5.13;;;18.00;99.90;;;;;;5017234;28;20444;-69
2023/08/01 03:00:17;;;;;;;5.80;4.10;;;18.00;99.90;;;;;;5017008;28;20475;-69
2023/08/01 03:02:45;;;;;;;4.23;3.87;;;17.90;99.90;;;;;;5015684;28;20639;-69
2023/08/01 03:05:12;;;;;;;4.70;4.30;;;17.90;99.90;;;;;;5015998;28;20534;-70
2023/08/01 03:07:39;;;;;;;8.13;5.63;;;17.90;99.90;;;;;;5015045;28;20450;-69
2023/08/01 03:10:06;;;;;;;6.20;5.60;;;17.90;99.90;;;;;;5014893;28;20539;-69
2023/08/01 03:12:33;;;;;;;8.77;5.80;;;17.90;99.90;;;;;;5014381;28;20478;-70
2023/08/01 03:15:00;;;;;;;6.40;5.80;;;17.80;99.90;;;;;;5014233;28;20439;-69
2023/08/01 03:17:27;;;;;;;9.50;7.00;;;17.80;99.90;;;;;;5013163;28;21019;-69
2023/08/01 03:19:55;;;;;;;7.13;6.53;;;17.80;99.90;;;;;;5014483;28;20869;-70
2023/08/01 03:22:22;;;;;;;9.33;6.97;;;17.80;99.90;;;;;;5014575;28;20454;-69
2023/08/01 03:24:49;;;;;;;10.43;7.87;;;17.70;99.90;;;;;;5014481;28;20455;-69
2023/08/01 03:27:16;;;;;;;9.17;8.20;;;17.70;99.90;;;;;;5015048;28;20450;-69
2023/08/01 03:29:43;;;;;;;13.23;9.40;;;17.60;99.90;;;;;;5014686;28;20484;-69
2023/08/01 03:32:09;;;;;;;10.50;9.50;;;17.60;99.90;;;;;;5015136;28;20454;-69
2023/08/01 03:34:35;;;;;;;10.50;9.40;;;17.60;99.90;;;;;;5014497;28;20447;-69
2023/08/01 03:37:04;;;;;;;11.60;10.13;;;17.60;99.90;;;;;;5014079;28;20211;-69
2023/08/01 03:39:31;;;;;;;11.93;9.53;;;17.50;99.90;;;;;;5014211;28;20526;-69
2023/08/01 03:41:58;;;;;;;10.97;9.90;;;17.50;99.90;;;;;;5014166;28;20447;-70
2023/08/01 03:44:25;;;;;;;11.27;10.00;;;17.40;99.90;;;;;;5012497;28;20490;-69
2023/08/01 03:46:51;;;;;;;11.13;10.03;;;17.40;99.90;;;;;;5014120;28;20458;-69
2023/08/01 03:49:18;;;;;;;13.00;9.23;;;17.40;99.90;;;;;;5014001;28;20452;-69
2023/08/01 03:51:45;;;;;;;15.47;9.93;;;17.40;99.90;;;;;;5014120;28;20491;-69
2023/08/01 03:54:13;;;;;;;13.97;10.53;;;17.30;99.90;;;;;;5014019;28;20447;-69
2023/08/01 03:56:42;;;;;;;12.13;10.43;;;17.30;99.90;;;;;;5013843;28;20861;-69
2023/08/01 03:59:09;;;;;;;17.70;10.50;;;17.30;99.90;;;;;;5013640;28;20483;-70
2023/08/01 04:01:36;;;;;;;13.03;11.63;;;17.30;99.90;;;;;;5014954;28;20545;-69
2023/08/01 04:04:03;;;;;;;12.70;9.70;;;17.20;99.90;;;;;;5012851;28;20451;-69
2023/08/01 04:06:29;;;;;;;12.10;10.87;;;17.10;99.90;;;;;;5013995;28;20493;-69
2023/08/01 04:08:56;;;;;;;19.27;10.70;;;17.10;99.90;;;;;;5013675;28;20466;-69
2023/08/01 04:11:25;;;;;;;15.97;9.77;;;17.10;99.90;;;;;;5013491;28;20968;-70
2023/08/01 04:13:51;;;;;;;13.87;10.00;;;17.10;99.90;;;;;;5013371;28;20936;-69
2023/08/01 04:16:18;;;;;;;10.80;9.70;;;17.10;99.90;;;;;;5013445;28;20447;-69
2023/08/01 04:18:45;;;;;;;16.20;9.40;;;17.10;99.90;;;;;;5013321;28;20493;-69
2023/08/01 04:21:14;;;;;;;13.67;10.60;;;17.10;99.90;;;;;;5013665;28;20474;-69
2023/08/01 04:23:41;;;;;;;10.70;8.03;;;17.20;99.90;;;;;;5012599;28;20451;-69
2023/08/01 04:26:08;;;;;;;11.13;8.33;;;17.20;99.90;;;;;;5026369;28;20459;-69
2023/08/01 04:28:36;;;;;;;10.20;7.77;;;17.20;99.90;;;;;;5018990;28;20447;-69
2023/08/01 04:31:03;;;;;;;10.77;7.80;;;17.20;99.90;;;;;;5016239;28;20479;-69
2023/08/01 04:33:29;;;;;;;12.33;8.30;;;17.20;99.90;;;;;;5014951;28;20458;-69
2023/08/01 04:35:56;;;;;;;10.03;8.63;;;17.20;99.90;;;;;;5017360;28;20807;-69
2023/08/01 04:38:23;;;;;;;14.33;8.00;;;17.20;99.90;;;;;;5016795;28;20805;-69
2023/08/01 04:40:50;;;;;;;10.00;7.80;;;17.20;99.90;;;;;;5017320;28;20984;-69
2023/08/01 04:43:17;;;;;;;8.93;7.33;;;17.20;99.90;;;;;;5016674;28;20447;-70
2023/08/01 04:45:46;;;;;;;9.67;7.23;;;17.20;99.90;;;;;;5016737;28;20454;-70
2023/08/01 04:48:12;;;;;;;9.93;7.80;;;17.20;99.90;;;;;;5016740;28;20447;-70
2023/08/01 04:50:39;;;;;;;11.20;7.60;;;17.20;99.90;;;;;;5016572;28;20459;-70
2023/08/01 04:53:06;;;;;;;10.77;7.40;;;17.20;99.90;;;;;;5016672;28;20458;-70
2023/08/01 04:55:33;;;;;;;9.43;6.80;;;17.20;99.90;;;;;;5016964;28;20491;-70
2023/08/01 04:57:59;;;;;;;9.43;7.47;;;17.20;99.90;;;;;;5017114;28;20454;-70
2023/08/01 05:00:26;;;;;;;14.70;8.00;;;17.20;99.90;;;;;;5016988;28;20491;-70
2023/08/01 05:02:55;;;;;;;11.00;7.53;;;17.20;99.90;;;;;;5015204;28;20929;-70
2023/08/01 05:05:21;;;;;;;9.90;8.00;;;17.20;99.90;;;;;;5017009;28;20439;-71
2023/08/01 05:07:48;;;;;;;14.20;8.63;;;17.20;99.90;;;;;;5015373;28;20459;-70
2023/08/01 05:10:15;;;;;;;14.23;7.50;;;17.20;99.90;;;;;;5016367;28;20482;-70
2023/08/01 05:12:42;;;;;;;12.60;7.70;;;17.20;99.90;;;;;;5016168;28;20455;-70
2023/08/01 05:15:09;;;;;;;11.20;7.33;;;17.20;99.90;;;;;;5016183;28;20832;-71
2023/08/01 05:17:36;;;;;;;11.07;7.60;;;17.20;99.90;;;;;;5016094;28;20447;-70
2023/08/01 05:20:05;;;;;;;11.20;6.80;;;17.30;99.90;;;;;;5016049;28;20868;-70
2023/08/01 05:22:31;;;;;;;12.30;6.87;;;17.30;99.90;;;;;;5016187;28;20534;-70
2023/08/01 05:24:57;;;;;;;8.13;6.90;;;17.30;99.90;;;;;;5016132;28;20550;-70
2023/08/01 05:27:24;;;;;;;14.53;6.60;;;17.40;99.90;;;;;;5015700;28;20224;-70
2023/08/01 05:29:51;;;;;;;7.20;6.10;;;17.40;99.90;;;;;;5015772;28;20460;-70
2023/08/01 05:32:17;;;;;;;14.03;7.13;;;17.50;99.90;;;;;;5014676;28;20448;-70
2023/08/01 05:34:44;;;;;;;10.63;6.70;;;17.40;99.90;;;;;;5015845;28;20443;-70
2023/08/01 05:37:12;;;;;;;8.53;6.27;;;17.40;99.90;;;;;;5015710;28;20447;-70
2023/08/01 05:39:39;;;;;;;12.27;8.00;;;17.50;99.90;;;;;;5015694;28;20891;-70
2023/08/01 05:42:08;;;;;;;8.30;6.60;;;17.40;99.90;;;;;;5015577;28;20479;-70
2023/08/01 05:44:35;;;;;;;10.07;6.53;;;17.50;99.90;;;;;;5015074;28;20494;-70
2023/08/01 05:47:02;;;;;;;10.67;7.00;;;17.50;99.90;;;;;;5015805;28;20450;-70
2023/08/01 05:49:29;;;;;;;10.50;6.70;;;17.50;99.90;;;;;;5015377;28;20440;-70
2023/08/01 05:51:56;;;;;;;10.40;6.40;;;17.50;99.90;;;;;;5015445;28;20488;-70
2023/08/01 05:54:24;;;;;;;10.80;6.80;;;17.50;99.90;;;;;;5015495;28;20454;-70
2023/08/01 05:56:51;;;;;;;17.87;7.37;;;17.60;99.90;;;;;;5015436;28;20443;-70
2023/08/01 05:59:17;;;;;;;11.10;6.20;;;17.70;99.90;;;;;;5015206;28;20483;-70
2023/08/01 06:01:44;;;;;;;12.00;6.80;;;17.70;99.90;;;;;;5015180;28;20470;-70
2023/08/01 06:04:11;;;;;;;7.37;6.57;;;17.80;99.90;;;;;;5015145;28;20455;-70
2023/08/01 06:06:38;;;;;;;6.57;5.93;;;17.80;99.90;;;;;;5015209;28;20444;-70
2023/08/01 06:09:04;;;;;;;12.93;6.20;;;17.90;99.90;;;;;;5014916;28;20439;-70
2023/08/01 06:11:33;;;;;;;9.60;6.47;;;17.90;99.90;;;;;;5015049;28;20474;-70
2023/08/01 06:14:00;;;;;;;13.23;5.60;;;18.00;99.90;;;;;;5014799;28;20450;-70
2023/08/01 06:16:26;;;;;;;13.27;6.87;;;18.20;99.90;;;;;;5014976;28;20470;-70
2023/08/01 06:18:53;;;;;;;11.23;7.43;;;18.30;99.90;;;;;;5013400;28;20933;-70
2023/08/01 06:21:20;;;;;;;7.27;5.30;;;18.20;99.90;;;;;;5014859;28;20830;-70
2023/08/01 06:23:47;;;;;;;8.93;6.57;;;18.30;99.90;;;;;;5015014;28;20440;-70
2023/08/01 06:26:15;;;;;;;13.27;6.47;;;18.40;99.90;;;;;;5014580;28;20462;-70
2023/08/01 06:28:43;;;;;;;8.33;5.93;;;18.40;99.90;;;;;;5014851;28;20427;-70
2023/08/01 06:31:10;;;;;;;8.73;5.50;;;18.50;99.90;;;;;;5013363;28;20463;-70
2023/08/01 06:33:36;;;;;;;8.73;5.70;;;18.40;99.90;;;;;;5015347;28;20454;-70
2023/08/01 06:36:04;;;;;;;14.83;7.10;;;18.40;99.90;;;;;;5014529;28;20447;-70
2023/08/01 06:38:30;;;;;;;7.90;6.27;;;18.40;99.90;;;;;;5014835;28;20451;-70
2023/08/01 06:40:57;;;;;;;11.03;6.70;;;18.30;99.90;;;;;;5024358;28;20495;-71
2023/08/01 06:43:24;;;;;;;9.10;6.40;;;18.30;99.90;;;;;;5021122;28;20448;-71
2023/08/01 06:45:52;;;;;;;10.50;6.27;;;18.40;99.90;;;;;;5018434;28;20483;-71
2023/08/01 06:48:19;;;;;;;9.93;6.03;;;18.40;99.90;;;;;;5016452;28;20452;-71
2023/08/01 06:50:46;;;;;;;9.57;6.70;;;18.50;99.90;;;;;;5013939;28;20502;-72
2023/08/01 06:53:13;;;;;;;10.53;6.67;;;18.40;99.90;;;;;;5014635;28;20479;-68
2023/08/01 06:55:40;;;;;;;11.60;7.20;;;18.50;99.90;;;;;;5014414;28;20498;-69
2023/08/01 06:58:08;;;;;;;9.47;6.30;;;18.60;99.90;;;;;;5014044;28;20948;-69
2023/08/01 07:00:35;;;;;;;8.23;6.40;;;18.60;99.90;;;;;;5014959;28;20495;-69
2023/08/01 07:03:03;;;;;;;8.87;6.60;;;18.70;99.90;;;;;;5014452;28;20450;-69
2023/08/01 07:05:30;;;;;;;10.83;6.73;;;18.80;99.90;;;;;;5014562;28;20470;-70
2023/08/01 07:07:58;;;;;;;11.37;6.50;;;18.80;99.90;;;;;;5013987;28;20483;-69
2023/08/01 07:10:24;;;;;;;10.60;7.10;;;18.70;99.90;;;;;;5013278;28;20459;-69
2023/08/01 07:12:51;;;;;;;7.83;6.93;;;18.70;99.90;;;;;;5014092;28;20443;-69
2023/08/01 07:15:18;;;;;;;12.43;6.70;;;18.70;99.90;;;;;;5014291;28;20444;-69
2023/08/01 07:17:44;;;;;;;13.03;7.40;;;18.70;99.90;;;;;;5013988;28;20538;-69
2023/08/01 07:20:13;;;;;;;10.10;7.30;;;18.70;99.90;;;;;;5014095;28;20514;-69
2023/08/01 07:22:40;;;;;;;11.43;7.27;;;18.60;99.90;;;;;;5013859;28;20468;-69
2023/08/01 07:25:07;;;;;;;9.00;5.90;;;18.70;99.90;;;;;;5013723;28;20450;-69
2023/08/01 07:27:34;;;;;;;11.27;6.43;;;18.50;99.90;;;;;;5013808;28;20883;-70
2023/08/01 07:30:01;;;;;;;11.43;6.30;;;18.70;99.90;;;;;;5014819;28;20463;-70
2023/08/01 07:32:27;;;;;;;9.80;5.67;;;18.90;99.90;;;;;;5013840;28;20447;-69
2023/08/01 07:34:54;;;;;;;7.63;6.07;;;19.20;99.90;;;;;;5013663;28;20460;-70
2023/08/01 07:37:22;;;;;;;11.43;6.60;;;19.30;99.90;;;;;;5013037;28;20505;-70
2023/08/01 07:39:50;;;;;;;9.40;6.23;;;19.40;99.90;;;;;;5013619;28;20558;-70
2023/08/01 07:42:17;;;;;;;7.33;5.40;;;19.40;99.90;;;;;;5013852;28;20443;-69
2023/08/01 07:44:44;;;;;;;15.43;6.27;;;19.30;99.90;;;;;;5013945;28;20443;-69
2023/08/01 07:47:10;;;;;;;12.53;5.87;;;19.30;99.90;;;;;;5013852;28;20443;-70
2023/08/01 07:49:38;;;;;;;10.43;5.80;;;19.30;99.90;;;;;;5014177;28;20436;-70
2023/08/01 07:52:06;;;;;;;9.83;5.90;;;19.10;99.90;;;;;;5014003;28;20478;-70
2023/08/01 07:54:34;;;;;;;12.53;5.50;;;19.20;99.90;;;;;;5013350;28;20975;-70
2023/08/01 07:57:01;;;;;;;9.43;5.73;;;19.30;99.90;;;;;;5020576;28;20458;-70
2023/08/01 07:59:28;;;;;;;7.33;5.17;;;19.40;99.90;;;;;;5033174;28;20443;-70
2023/08/01 08:01:55;;;;;;;6.90;4.70;;;19.50;99.90;;;;;;5033417;28;20470;-70
2023/08/01 08:04:22;;;;;;;12.10;5.83;;;19.60;99.90;;;;;;5032976;28;20818;-70
2023/08/01 08:06:48;;;;;;;8.17;5.20;;;19.60;99.30;;;;;;5033431;28;20818;-70
2023/08/01 08:09:15;;;;;;;7.13;5.20;;;19.50;99.80;;;;;;5036682;28;20451;-70
2023/08/01 08:11:43;;;;;;;8.40;5.10;;;19.40;99.90;;;;;;5020889;28;20852;-70
2023/08/01 08:14:11;;;;;;;11.77;5.13;;;19.40;99.90;;;;;;5017124;28;20454;-70
2023/08/01 08:16:38;;;;;;;8.53;4.87;;;19.50;99.90;;;;;;5017252;28;20466;-70
2023/08/01 08:19:05;;;;;;;6.43;4.60;;;19.50;99.60;;;;;;5016894;28;20447;-69
2023/08/01 08:21:32;;;;;;;9.43;5.30;;;19.60;99.10;;;;;;5016565;28;20487;-70
2023/08/01 08:23:59;;;;;;;13.47;5.50;;;19.60;99.40;;;;;;5017017;28;20450;-69
2023/08/01 08:26:26;;;;;;;9.63;4.90;;;19.70;99.30;;;;;;5016816;28;20455;-69
2023/08/01 08:28:54;;;;;;;7.33;4.23;;;19.90;99.60;;;;;;5016927;28;20450;-70
2023/08/01 08:31:21;;;;;;;9.70;5.20;;;20.00;98.90;;;;;;5016954;28;20469;-70
2023/08/01 08:33:48;;;;;;;8.90;4.97;;;20.10;98.20;;;;;;5025185;28;20521;-70
2023/08/01 08:36:14;;;;;;;5.83;4.60;;;20.00;97.50;;;;;;5036295;28;20954;-69
2023/08/01 08:38:41;;;;;;;6.70;4.60;;;19.90;97.90;;;;;;5036651;28;20458;-70
2023/08/01 08:41:10;;;;;;;7.00;4.23;;;20.00;98.00;;;;;;5035886;28;20485;-70
2023/08/01 08:43:38;;;;;;;8.70;4.70;;;20.20;98.10;;;;;;5036354;28;20449;-70
2023/08/01 08:46:07;;;;;;;7.73;4.70;;;20.30;97.30;;;;;;5035239;28;20442;-70
2023/08/01 08:48:35;;;;;;;5.47;4.53;;;20.20;96.80;;;;;;5035938;28;20458;-70
2023/08/01 08:51:03;;;;;;;7.17;3.90;;;20.30;97.40;;;;;;5036257;28;20469;-70
2023/08/01 08:53:31;;;;;;;7.37;4.50;;;20.20;96.70;;;;;;5036289;28;20445;-70
2023/08/01 08:55:58;;;;;;;10.40;4.00;;;20.20;96.00;;;;;;5035764;28;20915;-70
2023/08/01 08:58:25;;;;;;;8.60;4.97;;;20.40;96.60;;;;;;5044993;28;20423;-71
2023/08/01 09:00:52;;;;;;;7.17;4.67;;;20.50;96.60;;;;;;5044988;28;20490;-71
2023/08/01 09:03:20;;;;;;;7.97;4.67;;;20.50;95.90;;;;;;5040852;28;20450;-70
2023/08/01 09:05:50;;;;;;;6.10;4.37;;;20.40;95.70;;;;;;5036984;28;20446;-70
2023/08/01 09:08:20;;;;;;;8.30;5.00;;;20.50;96.10;;;;;;5036533;28;20964;-70
2023/08/01 09:10:48;;;;;;;6.63;4.73;;;20.70;96.20;;;;;;5036714;28;20458;-70
2023/08/01 09:13:15;;;;;;;6.80;4.40;;;20.70;96.40;;;;;;5036166;28;20453;-70
2023/08/01 09:15:43;;;;;;;7.53;4.20;;;20.80;95.70;;;;;;5036138;28;20457;-70
2023/08/01 09:18:10;;;;;;;11.43;4.67;;;20.90;95.20;;;;;;5036060;28;20489;-70
2023/08/01 09:21:02;;;;;;;5.27;4.20;;;21.10;95.20;;;;;;5035030;28;20482;-70
2023/08/01 09:23:30;;;;;;;7.93;3.87;;;21.40;95.20;;;;;;5035013;28;20510;-70
2023/08/01 09:25:57;;;;;;;5.30;4.23;;;21.50;94.10;;;;;;5018237;28;20654;-71
2023/08/01 09:28:24;;;;;;;5.57;3.80;;;21.50;93.60;;;;;;5035807;28;20430;-70
2023/08/01 09:30:54;;;;;;;5.53;4.00;;;21.50;93.50;;;;;;5035608;28;20843;-70
2023/08/01 09:33:21;;;;;;;7.23;4.07;;;21.60;93.60;;;;;;5035568;28;20796;-70
2023/08/01 09:35:51;;;;;;;7.33;4.57;;;21.70;93.50;;;;;;5035618;28;20446;-70
2023/08/01 09:38:18;;;;;;;7.17;3.97;;;21.80;93.40;;;;;;5035582;28;20454;-70
2023/08/01 09:40:46;;;;;;;5.37;3.70;;;21.90;92.70;;;;;;5035368;28;20493;-70
2023/08/01 09:43:14;;;;;;;7.33;3.73;;;22.00;92.20;;;;;;5035404;28;20453;-70
2023/08/01 09:45:51;;;;;;;4.83;3.93;;;22.20;92.80;;;;;;5035382;28;20443;-70
2023/08/01 09:48:24;;;;;;;6.03;4.30;;;22.60;92.80;;;;;;5035446;28;20485;-70
2023/08/01 09:50:53;;;;;;;4.30;3.90;;;23.00;90.80;;;;;;5035478;28;20482;-70
2023/08/01 09:53:19;;;;;;;5.50;4.30;;;23.20;86.60;;;;;;5035142;28;20508;-70
2023/08/01 09:55:49;;;;;;;6.03;3.83;;;23.30;86.40;;;;;;5035198;28;20836;-70
2023/08/01 09:58:22;;;;;;;9.60;4.43;;;23.50;87.90;;;;;;5035041;28;20450;-70
2023/08/01 10:00:50;;;;;;;7.30;3.97;;;23.80;86.20;;;;;;5035096;28;20494;-70
2023/08/01 10:03:19;;;;;;;7.30;4.00;;;24.00;83.40;;;;;;5034858;28;20446;-71
2023/08/01 10:05:47;;;;;;;8.17;3.20;;;24.00;79.60;;;;;;5033261;28;20811;-70
2023/08/01 10:08:17;;;;;;;4.80;4.13;;;23.80;78.90;;;;;;5034880;28;20442;-70
2023/08/01 10:10:44;;;;;;;11.60;4.57;;;23.40;80.50;;;;;;5034834;28;20490;-70
2023/08/01 10:13:14;;;;;;;10.03;5.90;;;23.00;80.40;;;;;;5035512;28;20442;-70
2023/08/01 10:15:41;;;;;;;6.93;3.77;;;23.00;83.90;;;;;;5035141;28;20446;-70
2023/08/01 10:18:09;;;;;;;4.53;3.27;;;23.00;84.90;;;;;;5038974;28;20450;-70
2023/08/01 10:20:38;;;;;;;5.63;3.50;;;23.10;82.60;;;;;;5034861;28;20509;-70
2023/08/01 10:23:06;;;;;;;13.07;4.97;;;23.10;83.20;;;;;;5033570;28;20450;-70
2023/08/01 10:25:34;;;;;;;5.37;3.70;;;23.30;84.20;;;;;;5034916;28;20929;-70
2023/08/01 10:28:01;;;;;;;6.20;3.30;;;23.20;82.00;;;;;;5034197;28;20458;-70
2023/08/01 10:30:29;;;;;;;5.43;3.40;;;23.30;80.80;;;;;;5033201;28;20466;-70
2023/08/01 10:32:57;;;;;;;5.77;3.53;;;23.40;81.10;;;;;;5034373;28;20446;-70
2023/08/01 10:35:33;;;;;;;7.67;3.47;;;23.40;79.20;;;;;;5034412;28;20447;-70
2023/08/01 10:38:06;;;;;;;7.13;3.53;;;23.10;80.80;;;;;;5033838;28;20451;-70
2023/08/01 10:40:39;;;;;;;4.57;4.17;;;23.00;80.00;;;;;;5034206;28;20505;-70
2023/08/01 10:43:06;;;;;;;7.20;3.33;;;22.90;79.80;;;;;;5033993;28;20931;-70
2023/08/01 10:45:32;;;;;;;5.27;3.50;;;22.90;80.10;;;;;;5034279;28;20447;-70
2023/08/01 10:48:09;;;;;;;4.53;3.47;;;22.80;78.00;;;;;;5034205;28;20443;-70
2023/08/01 10:50:37;;;;;;;4.33;3.17;;;22.90;79.70;;;;;;5035335;28;20466;-72
2023/08/01 10:53:05;;;;;;;4.70;3.80;;;22.90;80.70;;;;;;5034071;28;20457;-72
2023/08/01 10:55:48;;;;;;;6.10;3.40;;;23.00;80.80;;;;;;5033929;28;20480;-71
2023/08/01 10:58:15;;;;;;;5.87;3.40;;;23.00;79.90;;;;;;5034036;28;20517;-71
2023/08/01 11:00:43;;;;;;;6.60;3.60;;;23.30;80.40;;;;;;5033766;28;20497;-71
2023/08/01 11:03:10;;;;;;;4.67;3.53;;;23.60;78.90;;;;;;5033890;28;20446;-72
2023/08/01 11:05:37;;;;;;;4.10;2.93;;;23.90;74.60;;;;;;5033657;28;20467;-71
2023/08/01 11:08:05;;;;;;;3.00;2.33;;;24.00;71.30;;;;;;5033836;28;20446;-71
2023/08/01 11:10:33;;;;;;;3.03;2.63;;;24.20;68.30;;;;;;5027066;28;20491;-71
2023/08/01 11:13:01;;;;;;;3.23;2.60;;;24.80;67.90;;;;;;5022879;28;20427;-72
2023/08/01 11:15:28;;;;;;;3.63;3.00;;;25.60;68.00;;;;;;5020633;28;20933;-71
2023/08/01 11:17:56;;;;;;;8.30;2.87;;;26.50;63.00;;;;;;5018921;28;20454;-71
2023/08/01 11:20:24;;;;;;;3.10;2.33;;;27.10;58.40;;;;;;5020903;28;20479;-71
2023/08/01 11:22:54;;;;;;;5.73;2.70;;;27.10;56.30;;;;;;5019292;28;20471;-71
2023/08/01 11:25:32;;;;;;;3.13;1.53;;;26.60;58.00;;;;;;5018534;28;20467;-71
2023/08/01 11:28:03;;;;;;;2.43;1.40;;;26.20;60.60;;;;;;5017114;28;20451;-72
2023/08/01 11:30:32;;;;;;;1.90;1.30;;;25.80;60.90;;;;;;5018632;28;20988;-69
2023/08/01 11:32:59;;;;;;;5.80;1.73;;;25.30;62.50;;;;;;5017371;28;20486;-69
2023/08/01 11:35:25;;;;;;;2.30;2.10;;;24.80;64.10;;;;;;5016457;28;20864;-70
2023/08/01 11:37:53;;;;;;;2.87;1.87;;;24.50;67.90;;;;;;5016731;28;20447;-70
2023/08/01 11:40:20;;;;;;;2.93;2.03;;;24.30;69.70;;;;;;5014810;28;20526;-70
2023/08/01 11:42:51;;;;;;;3.37;2.13;;;24.00;71.40;;;;;;5018827;28;20483;-70
2023/08/01 11:45:19;;;;;;;4.20;2.50;;;23.70;73.90;;;;;;5021894;28;20443;-70
2023/08/01 11:47:46;;;;;;;4.13;2.63;;;23.40;75.80;;;;;;5021898;28;20497;-69
2023/08/01 11:50:13;;;;;;;3.70;2.00;;;23.50;78.60;;;;;;5021940;28;20495;-70
2023/08/01 11:52:40;;;;;;;4.10;2.20;;;24.20;77.50;;;;;;5021703;28;20459;-70
2023/08/01 11:55:08;;;;;;;3.13;2.40;;;24.60;76.10;;;;;;5021047;28;20820;-70
2023/08/01 11:57:35;;;;;;;4.73;2.73;;;24.70;73.60;;;;;;5020972;28;20446;-70
2023/08/01 12:00:01;;;;;;;5.20;3.53;;;24.60;72.30;;;;;;5020499;28;20463;-70
2023/08/01 12:02:30;;;;;;;6.20;3.30;;;24.30;72.80;;;;;;5020670;28;20501;-70
2023/08/01 12:04:57;;;;;;;3.10;2.60;;;23.80;73.70;;;;;;5020566;28;20974;-70
2023/08/01 12:07:27;;;;;;;2.60;2.40;;;23.30;75.70;;;;;;5020620;28;20447;-70
2023/08/01 12:09:58;;;;;;;8.37;3.47;;;22.90;80.30;;;;;;5020839;28;20470;-70
2023/08/01 12:12:27;;;;;;;5.13;3.17;;;22.60;83.00;;;;;;5019993;28;20450;-70
2023/08/01 12:14:54;;;;;;;5.63;2.90;;;22.90;86.70;;;;;;5020526;28;20447;-70
2023/08/01 12:17:21;;;;;;;3.30;2.57;;;24.10;84.50;;;;;;5019859;28;20489;-70
2023/08/01 12:19:49;;;;;;;3.30;2.37;;;25.60;74.90;;;;;;5020308;28;20454;-70
2023/08/01 12:22:15;;;;;;;2.60;2.03;;;27.20;68.80;;;;;;5020330;28;20888;-70
2023/08/01 12:24:43;;;;;;;6.23;2.60;;;28.50;61.20;;;;;;5018975;28;20446;-70
2023/08/01 12:27:10;;;;;;;4.33;2.47;;;29.40;56.80;;;;;;5019782;28;20451;-70
2023/08/01 12:29:37;;;;;;;4.00;2.47;;;30.50;54.00;;;;;;5020549;28;20445;-71
2023/08/01 12:32:06;;;;;;;5.60;2.63;;;31.30;49.40;;;;;;5019856;28;20449;-70
2023/08/01 12:34:34;;;;;;;4.17;2.90;;;30.70;48.10;;;;;;5019971;28;20446;-70
2023/08/01 12:37:03;;;;;;;6.70;3.30;;;29.80;50.70;;;;;;5019828;28;20443;-70
2023/08/01 12:39:30;;;;;;;8.00;2.93;;;28.60;53.10;;;;;;5020168;28;20474;-70
2023/08/01 12:41:57;;;;;;;3.87;3.20;;;27.70;56.10;;;;;;5019747;28;20987;-70
2023/08/01 12:44:23;;;;;;;5.13;3.47;;;26.70;58.90;;;;;;5034134;28;22087;-70
2023/08/01 12:46:50;;;;;;;6.10;3.43;;;26.00;63.80;;;;;;5039236;28;20449;-70